createdAt,value
2022-11-24T00:01:12.186Z,99912.59
2022-11-24T00:03:45.290Z,99912.03
2022-11-24T00:06:18.372Z,99896.28
2022-11-24T00:08:51.318Z,99906.56
2022-11-24T00:11:25.926Z,99914.41
2022-11-24T00:14:00.424Z,99919.53
2022-11-24T00:16:35.215Z,99907.22
2022-11-24T00:19:10.232Z,99915.66
2022-11-24T00:21:42.979Z,99918.75
2022-11-24T00:24:15.718Z,99923.53
2022-11-24T00:26:48.591Z,99921.72
2022-11-24T00:29:22.626Z,99921.31
2022-11-24T00:31:57.654Z,99929.69
2022-11-24T00:34:30.578Z,99912.91
2022-11-24T00:37:03.346Z,99921.91
2022-11-24T00:39:36.101Z,99927.38
2022-11-24T00:42:08.836Z,99933.25
2022-11-24T00:44:42.917Z,99933.25
2022-11-24T00:47:15.925Z,99934.16
2022-11-24T00:49:49.017Z,99942.16
2022-11-24T00:52:21.750Z,99937.09
2022-11-24T00:54:54.461Z,99925.69
2022-11-24T00:57:27.313Z,99936.91
2022-11-24T01:00:01.413Z,99941.53
2022-11-24T01:02:34.212Z,99947.91
2022-11-24T01:05:07.912Z,99952.16
2022-11-24T01:07:40.672Z,99944.69
2022-11-24T01:10:13.402Z,99953.03
2022-11-24T01:12:46.142Z,99949.22
2022-11-24T01:15:20.394Z,99951.97
2022-11-24T01:17:53.142Z,99957.50
2022-11-24T01:20:25.860Z,99960.88
2022-11-24T01:22:58.718Z,99961.59
2022-11-24T01:25:31.446Z,99936.59
2022-11-24T01:28:04.220Z,99966.19
2022-11-24T01:30:38.306Z,99966.91
2022-11-24T01:33:11.135Z,99970.94
2022-11-24T01:35:44.190Z,99968.97
2022-11-24T01:38:16.911Z,99967.56
2022-11-24T01:40:50.262Z,99966.47
2022-11-24T01:43:23.439Z,99952.97
2022-11-24T01:45:59.985Z,99966.72
2022-11-24T01:48:38.174Z,99967.16
2022-11-24T01:51:14.684Z,99970.66
2022-11-24T01:53:52.967Z,99973.22
2022-11-24T01:56:26.549Z,99975.13
2022-11-24T01:59:02.440Z,99968.09
2022-11-24T02:01:36.606Z,99975.09
2022-11-24T02:04:15.328Z,99977.59
2022-11-24T02:06:49.169Z,99972.66
2022-11-24T02:09:27.180Z,99977.19
2022-11-24T02:12:01.985Z,99979.16
2022-11-24T02:14:37.813Z,99977.75
2022-11-24T02:17:12.335Z,99979.63
2022-11-24T02:19:53.042Z,99985.63
2022-11-24T02:22:34.656Z,99990.97
2022-11-24T02:25:16.484Z,99993.28
2022-11-24T02:27:54.056Z,99994.97
2022-11-24T02:30:27.515Z,99995.69
2022-11-24T02:33:00.241Z,99998.06
2022-11-24T02:35:33.492Z,99990.88
2022-11-24T02:38:06.408Z,100011.03
2022-11-24T02:40:39.802Z,100002.03
2022-11-24T02:43:16.278Z,100004.41
2022-11-24T02:45:49.267Z,100016.84
2022-11-24T02:48:21.989Z,100013.16
2022-11-24T02:50:55.060Z,100014.66
2022-11-24T02:53:27.772Z,100019.38
2022-11-24T02:56:00.538Z,100020.78
2022-11-24T02:58:35.007Z,100024.25
2022-11-24T03:01:07.856Z,100020.94
2022-11-24T03:03:40.756Z,100019.28
2022-11-24T03:06:13.770Z,100029.66
2022-11-24T03:08:46.479Z,100027.88
2022-11-24T03:11:19.408Z,100016.69
2022-11-24T03:13:53.734Z,100033.75
2022-11-24T03:16:26.581Z,100032.28
2022-11-24T03:18:59.520Z,100031.09
2022-11-24T03:21:32.437Z,100027.81
2022-11-24T03:24:06.101Z,100035.44
2022-11-24T03:26:39.035Z,100037.19
2022-11-24T03:29:13.395Z,100039.84
2022-11-24T03:31:46.274Z,100046.28
2022-11-24T03:34:19.230Z,100047.97
2022-11-24T03:36:51.963Z,100046.34
2022-11-24T03:39:24.797Z,100043.97
2022-11-24T03:41:57.507Z,100045.28
2022-11-24T03:44:31.844Z,100050.59
2022-11-24T03:47:04.832Z,100053.31
2022-11-24T03:49:37.600Z,100046.88
2022-11-24T03:52:10.426Z,100038.53
2022-11-24T03:54:43.364Z,100037.63
2022-11-24T03:57:16.276Z,100058.50
2022-11-24T03:59:50.446Z,100055.56
2022-11-24T04:02:23.268Z,100049.03
2022-11-24T04:04:56.104Z,100061.34
2022-11-24T04:07:29.002Z,100026.53
2022-11-24T04:10:01.936Z,100060.50
2022-11-24T04:12:46.979Z,100072.66
2022-11-24T04:15:20.551Z,100069.00
2022-11-24T04:17:56.276Z,100061.41
2022-11-24T04:20:29.165Z,100057.53
2022-11-24T04:23:02.661Z,100054.13
2022-11-24T04:25:35.550Z,100081.53
2022-11-24T04:28:08.336Z,100080.72
2022-11-24T04:30:44.525Z,100083.19
2022-11-24T04:33:17.621Z,100088.44
2022-11-24T04:35:54.136Z,100084.22
2022-11-24T04:39:24.143Z,100087.03
2022-11-24T04:41:19.729Z,100094.88
2022-11-24T04:43:52.815Z,100089.59
2022-11-24T04:46:27.344Z,100099.72
2022-11-24T04:49:00.100Z,100071.59
2022-11-24T04:51:32.941Z,100107.88
2022-11-24T04:54:10.207Z,100096.78
2022-11-24T04:56:43.923Z,100112.44
2022-11-24T04:59:17.011Z,100116.16
2022-11-24T05:01:51.251Z,100124.94
2022-11-24T05:04:24.588Z,100122.13
2022-11-24T05:06:57.464Z,100121.34
2022-11-24T05:09:54.967Z,100129.47
2022-11-24T05:12:24.468Z,100097.41
2022-11-24T05:14:57.264Z,100104.66
2022-11-24T05:17:33.244Z,100129.38
2022-11-24T05:20:07.922Z,100142.81
2022-11-24T05:22:40.815Z,100151.91
2022-11-24T05:25:14.259Z,100151.72
2022-11-24T05:27:47.053Z,100126.69
2022-11-24T05:30:19.911Z,100148.00
2022-11-24T05:32:54.060Z,100163.19
2022-11-24T05:35:26.834Z,100173.09
2022-11-24T05:37:59.926Z,100172.16
2022-11-24T05:40:32.906Z,100139.78
2022-11-24T05:43:05.670Z,100176.28
2022-11-24T05:45:38.561Z,100177.06
2022-11-24T05:48:14.749Z,100178.28
2022-11-24T05:50:54.192Z,100182.88
2022-11-24T05:53:27.299Z,100182.88
2022-11-24T05:56:00.286Z,100188.69
2022-11-24T05:58:33.032Z,100186.19
2022-11-24T06:01:07.311Z,100194.03
2022-11-24T06:03:41.513Z,100169.44
2022-11-24T06:06:14.271Z,100190.38
2022-11-24T06:08:47.044Z,100200.78
2022-11-24T06:11:19.961Z,100196.44
2022-11-24T06:13:55.500Z,100204.03
2022-11-24T06:16:28.426Z,100200.53
2022-11-24T06:19:02.678Z,100207.53
2022-11-24T06:21:35.482Z,100209.22
2022-11-24T06:24:09.224Z,100208.75
2022-11-24T06:26:42.104Z,100207.28
2022-11-24T06:29:14.867Z,100203.88
2022-11-24T06:31:47.712Z,100213.69
2022-11-24T06:34:21.870Z,100217.09
2022-11-24T06:36:54.737Z,100207.88
2022-11-24T06:39:27.656Z,100216.41
2022-11-24T06:42:00.390Z,100224.16
2022-11-24T06:44:33.391Z,100221.03
2022-11-24T06:47:06.654Z,100231.88
2022-11-24T06:49:41.137Z,100246.63
2022-11-24T06:52:13.970Z,100242.16
2022-11-24T06:54:46.703Z,100205.00
2022-11-24T06:57:19.471Z,100241.88
2022-11-24T06:59:52.230Z,100223.19
2022-11-24T07:02:25.086Z,100254.81
2022-11-24T07:04:59.192Z,100250.44
2022-11-24T07:07:32.038Z,100235.00
2022-11-24T07:10:05.443Z,100231.81
2022-11-24T07:12:38.236Z,100245.97
2022-11-24T07:15:12.401Z,100274.66
2022-11-24T07:17:45.139Z,100269.94
2022-11-24T07:20:19.511Z,100282.16
2022-11-24T07:22:56.149Z,100284.69
2022-11-24T07:25:29.300Z,100294.84
2022-11-24T07:28:02.225Z,100261.28
2022-11-24T07:30:35.340Z,100288.09
2022-11-24T07:33:08.084Z,100304.44
2022-11-24T07:35:42.199Z,100310.03
2022-11-24T07:38:14.980Z,100274.28
2022-11-24T07:40:48.003Z,100315.25
2022-11-24T07:43:20.745Z,100309.97
2022-11-24T07:45:55.629Z,100305.63
2022-11-24T07:48:28.753Z,100275.50
2022-11-24T07:51:04.211Z,100322.50
2022-11-24T07:53:37.903Z,100272.34
2022-11-24T07:56:11.045Z,100335.13
2022-11-24T07:58:48.316Z,100343.09
2022-11-24T08:01:25.705Z,100348.28
2022-11-24T08:04:02.392Z,100341.41
2022-11-24T08:06:41.904Z,100355.91
2022-11-24T08:09:17.390Z,100322.44
2022-11-24T08:11:50.213Z,100351.44
2022-11-24T08:14:22.968Z,100377.22
2022-11-24T08:16:55.773Z,100372.75
2022-11-24T08:19:28.627Z,100379.88
2022-11-24T08:22:02.786Z,100367.28
2022-11-24T08:24:35.888Z,100390.66
2022-11-24T08:27:08.863Z,100389.56
2022-11-24T08:29:41.744Z,100396.44
2022-11-24T08:32:18.970Z,100392.09
2022-11-24T08:34:59.648Z,100408.19
2022-11-24T08:37:33.807Z,100400.22
2022-11-24T08:40:07.847Z,100398.78
2022-11-24T08:42:40.720Z,100408.34
2022-11-24T08:45:21.043Z,100418.16
2022-11-24T08:47:55.014Z,100415.41
2022-11-24T08:50:27.803Z,100420.59
2022-11-24T08:53:01.978Z,100418.19
2022-11-24T08:55:34.877Z,100431.97
2022-11-24T08:58:07.739Z,100440.22
2022-11-24T09:00:40.516Z,100441.63
2022-11-24T09:03:13.710Z,100451.44
2022-11-24T09:05:53.679Z,100424.25
2022-11-24T09:08:27.823Z,100409.53
2022-11-24T09:11:01.502Z,100437.78
2022-11-24T09:13:34.563Z,100449.72
2022-11-24T09:16:10.441Z,100435.03
2022-11-24T09:18:43.487Z,100455.66
2022-11-24T09:21:18.126Z,100456.78
2022-11-24T09:23:53.886Z,100464.19
2022-11-24T09:26:29.049Z,100432.16
2022-11-24T09:29:03.508Z,100463.66
2022-11-24T09:31:39.078Z,100475.13
2022-11-24T09:34:14.726Z,100485.16
2022-11-24T09:36:47.525Z,100460.00
2022-11-24T09:39:21.809Z,100487.56
2022-11-24T09:42:16.025Z,100478.38
2022-11-24T09:45:12.477Z,100494.84
2022-11-24T09:47:59.084Z,100506.91
2022-11-24T09:50:34.931Z,100511.66
2022-11-24T09:53:15.520Z,100465.16
2022-11-24T09:55:51.793Z,100501.38
2022-11-24T09:58:44.098Z,100514.47
2022-11-24T10:01:19.004Z,100521.56
2022-11-24T10:03:53.588Z,100526.88
2022-11-24T10:06:30.465Z,100471.66
2022-11-24T10:09:25.375Z,100528.66
2022-11-24T10:12:14.252Z,100530.75
2022-11-24T10:15:12.326Z,100541.28
2022-11-24T10:18:02.908Z,100541.34
2022-11-24T10:20:49.781Z,100542.59
2022-11-24T10:23:40.766Z,100546.41
2022-11-24T10:26:20.341Z,100557.69
2022-11-24T10:28:56.362Z,100523.13
2022-11-24T10:31:33.738Z,100519.75
2022-11-24T10:34:14.356Z,100560.78
2022-11-24T10:36:51.182Z,100564.97
2022-11-24T10:39:32.059Z,100565.53
2022-11-24T10:42:12.191Z,100569.19
2022-11-24T10:44:46.479Z,100568.75
2022-11-24T10:47:22.537Z,100557.19
2022-11-24T10:49:59.506Z,100571.78
2022-11-24T10:52:37.748Z,100576.47
2022-11-24T10:55:10.937Z,100593.06
2022-11-24T10:57:45.099Z,100588.91
2022-11-24T11:00:35.826Z,100591.66
2022-11-24T11:03:17.790Z,100587.16
2022-11-24T11:05:54.802Z,100538.81
2022-11-24T11:08:30.145Z,100585.75
2022-11-24T11:11:20.517Z,100582.69
2022-11-24T11:14:02.929Z,100573.06
2022-11-24T11:16:39.623Z,100598.31
2022-11-24T11:19:48.353Z,100603.38
2022-11-24T11:22:28.177Z,100592.25
2022-11-24T11:25:19.376Z,100616.53
2022-11-24T11:27:52.184Z,100614.72
2022-11-24T11:36:17.432Z,100638.00
2022-11-24T11:38:50.274Z,100622.56
2022-11-24T11:41:29.283Z,100596.03
2022-11-24T11:44:13.055Z,100624.97
2022-11-24T11:46:46.769Z,100632.59
2022-11-24T11:49:20.987Z,100640.13
2022-11-24T11:52:17.560Z,100629.09
2022-11-24T11:55:10.770Z,100635.91
2022-11-24T11:57:51.536Z,100632.59
2022-11-24T12:00:24.833Z,100635.22
2022-11-24T12:03:24.445Z,100639.91
2022-11-24T12:06:15.242Z,100643.69
2022-11-24T12:09:19.128Z,100646.97
2022-11-24T12:12:07.282Z,100601.34
2022-11-24T12:14:51.419Z,100643.13
2022-11-24T12:17:33.423Z,100636.47
2022-11-24T12:20:36.533Z,100642.69
2022-11-24T12:23:21.559Z,100647.94
2022-11-24T12:26:01.530Z,100645.84
2022-11-24T12:28:47.008Z,100642.88
2022-11-24T12:31:31.227Z,100641.59
2022-11-24T12:34:25.400Z,100589.06
2022-11-24T12:37:25.361Z,100615.09
2022-11-24T12:40:05.776Z,100648.72
2022-11-24T12:42:46.335Z,100643.41
2022-11-24T12:45:24.097Z,100640.63
2022-11-24T12:48:16.295Z,100603.25
2022-11-24T12:50:50.908Z,100570.75
2022-11-24T12:53:27.118Z,100641.63
2022-11-24T12:56:08.875Z,100610.25
2022-11-24T12:58:50.218Z,100647.78
2022-11-24T13:01:32.648Z,100640.91
2022-11-24T13:04:16.212Z,100633.13
2022-11-24T13:06:54.790Z,100628.91
2022-11-24T13:09:27.595Z,100620.19
2022-11-24T13:12:13.210Z,100633.28
2022-11-24T13:14:48.862Z,100636.00
2022-11-24T13:20:27.109Z,100631.50
2022-11-24T13:23:03.357Z,100611.03
2022-11-24T13:25:36.975Z,100606.44
2022-11-24T13:29:03.175Z,100642.06
2022-11-24T13:31:38.875Z,100640.22
2022-11-24T13:34:42.509Z,100643.88
2022-11-24T13:37:31.221Z,100652.16
2022-11-24T13:40:43.136Z,100642.16
2022-11-24T13:43:30.019Z,100656.56
2022-11-24T13:46:03.682Z,100628.91
2022-11-24T13:49:00.883Z,100663.59
2022-11-24T13:51:33.677Z,100664.00
2022-11-24T13:54:11.340Z,100653.44
2022-11-24T13:56:44.120Z,100660.47
2022-11-24T13:59:28.800Z,100653.31
2022-11-24T14:02:02.025Z,100669.78
2022-11-24T14:04:39.352Z,100670.22
2022-11-24T14:07:15.443Z,100669.78
2022-11-24T14:09:51.620Z,100660.22
2022-11-24T14:12:31.265Z,100634.31
2022-11-24T14:15:23.263Z,100656.00
2022-11-24T14:17:56.310Z,100654.97
2022-11-24T14:20:29.943Z,100650.06
2022-11-24T14:23:02.728Z,100655.69
2022-11-24T14:25:35.887Z,100659.81
2022-11-24T14:28:20.931Z,100662.59
2022-11-24T14:31:08.060Z,100665.16
2022-11-24T14:33:41.153Z,100668.31
2022-11-24T14:36:15.807Z,100648.19
2022-11-24T14:38:48.629Z,100650.47
2022-11-24T14:41:26.004Z,100668.19
2022-11-24T14:44:06.862Z,100665.97
2022-11-24T14:46:41.621Z,100652.13
2022-11-24T14:49:20.072Z,100677.47
2022-11-24T14:51:57.287Z,100678.22
2022-11-24T14:54:31.735Z,100675.84
2022-11-24T14:57:06.438Z,100666.88
2022-11-24T14:59:39.480Z,100686.09
2022-11-24T15:02:51.929Z,100684.22
2022-11-24T15:05:27.244Z,100685.00
2022-11-24T15:08:03.486Z,100663.06
2022-11-24T15:10:40.608Z,100644.97
2022-11-24T15:13:19.330Z,100681.06
2022-11-24T15:16:02.052Z,100664.53
2022-11-24T15:18:40.396Z,100679.59
2022-11-24T15:21:19.253Z,100656.16
2022-11-24T15:24:06.826Z,100696.28
2022-11-24T15:26:42.219Z,100682.31
2022-11-24T15:29:15.277Z,100667.88
2022-11-24T15:31:52.557Z,100695.44
2022-11-24T15:34:25.759Z,100688.06
2022-11-24T15:36:59.843Z,100689.66
2022-11-24T15:39:32.570Z,100669.84
2022-11-24T15:42:05.663Z,100691.44
2022-11-24T15:44:38.597Z,100651.03
2022-11-24T15:47:11.456Z,100705.56
2022-11-24T15:49:44.301Z,100688.44
2022-11-24T15:52:20.499Z,100707.19
2022-11-24T15:54:57.141Z,100706.03
2022-11-24T15:57:29.879Z,100707.59
2022-11-24T16:00:03.406Z,100707.16
2022-11-24T16:02:44.973Z,100711.56
2022-11-24T16:05:18.746Z,100706.72
2022-11-24T16:07:52.924Z,100709.53
2022-11-24T16:10:28.731Z,100711.94
2022-11-24T16:13:01.625Z,100724.41
2022-11-24T16:15:34.713Z,100722.63
2022-11-24T16:18:08.636Z,100721.31
2022-11-24T16:20:41.555Z,100730.97
2022-11-24T16:23:15.676Z,100732.06
2022-11-24T16:25:48.638Z,100734.09
2022-11-24T16:28:21.588Z,100735.09
2022-11-24T16:30:54.438Z,100738.88
2022-11-24T16:33:29.111Z,100736.34
2022-11-24T16:36:01.875Z,100745.25
2022-11-24T16:38:36.118Z,100750.59
2022-11-24T16:41:10.204Z,100740.19
2022-11-24T16:43:43.275Z,100731.16
2022-11-24T16:46:19.693Z,100749.03
2022-11-24T16:48:54.885Z,100733.59
2022-11-24T16:51:34.405Z,100734.19
2022-11-24T16:54:10.107Z,100741.22
2022-11-24T16:56:42.968Z,100734.88
2022-11-24T16:59:15.735Z,100751.72
2022-11-24T17:01:50.646Z,100742.34
2022-11-24T17:04:23.446Z,100748.09
2022-11-24T17:06:58.271Z,100751.78
2022-11-24T17:09:37.358Z,100742.44
2022-11-24T17:12:13.087Z,100743.75
2022-11-24T17:15:03.052Z,100741.81
2022-11-24T17:17:50.000Z,100739.28
2022-11-24T17:20:31.677Z,100743.31
2022-11-24T17:23:04.450Z,100736.22
2022-11-24T17:25:38.553Z,100743.00
2022-11-24T17:28:11.510Z,100746.53
2022-11-24T17:30:44.298Z,100749.06
2022-11-24T17:33:17.396Z,100740.88
2022-11-24T17:35:50.191Z,100738.66
2022-11-24T17:38:23.269Z,100741.94
2022-11-24T17:40:57.417Z,100746.50
2022-11-24T17:43:30.277Z,100723.59
2022-11-24T17:46:04.743Z,100736.72
2022-11-24T17:48:37.885Z,100739.25
2022-11-24T17:51:13.246Z,100743.16
2022-11-24T17:53:49.202Z,100734.97
2022-11-24T17:56:25.036Z,100738.75
2022-11-24T17:58:59.935Z,100745.69
2022-11-24T18:01:33.060Z,100745.75
2022-11-24T18:04:06.185Z,100749.00
2022-11-24T18:06:39.191Z,100743.91
2022-11-24T18:09:12.237Z,100749.56
2022-11-24T18:11:47.667Z,100754.88
2022-11-24T18:14:20.447Z,100753.34
2022-11-24T18:16:53.398Z,100751.66
2022-11-24T18:19:27.568Z,100742.75
2022-11-24T18:22:00.329Z,100752.28
2022-11-24T18:24:33.507Z,100741.38
2022-11-24T18:27:07.656Z,100748.97
2022-11-24T18:29:43.423Z,100759.47
2022-11-24T18:32:16.314Z,100757.34
2022-11-24T18:34:50.943Z,100765.00
2022-11-24T18:37:23.741Z,100750.88
2022-11-24T18:39:56.622Z,100776.03
2022-11-24T18:42:30.950Z,100773.47
2022-11-24T18:45:04.265Z,100771.25
2022-11-24T18:47:37.072Z,100780.69
2022-11-24T18:50:10.523Z,100791.09
2022-11-24T18:52:43.285Z,100781.13
2022-11-24T18:55:16.328Z,100790.91
2022-11-24T18:57:50.508Z,100790.59
2022-11-24T19:00:23.928Z,100779.66
2022-11-24T19:02:56.869Z,100798.34
2022-11-24T19:05:30.039Z,100777.72
2022-11-24T19:08:02.910Z,100790.59
2022-11-24T19:10:37.212Z,100786.66
2022-11-24T19:13:12.807Z,100800.66
2022-11-24T19:15:45.606Z,100795.59
2022-11-24T19:18:18.529Z,100787.06
2022-11-24T19:20:51.549Z,100781.91
2022-11-24T19:23:25.264Z,100783.91
2022-11-24T19:26:00.861Z,100786.03
2022-11-24T19:28:35.455Z,100778.38
2022-11-24T19:31:11.275Z,100791.09
2022-11-24T19:33:44.355Z,100778.78
2022-11-24T19:36:19.388Z,100773.72
2022-11-24T19:38:53.683Z,100770.31
2022-11-24T19:41:28.457Z,100775.31
2022-11-24T19:44:03.180Z,100772.44
2022-11-24T19:46:36.065Z,100769.44
2022-11-24T19:49:09.472Z,100765.66
2022-11-24T19:51:42.287Z,100782.19
2022-11-24T19:54:15.121Z,100762.44
2022-11-24T19:56:48.258Z,100778.16
2022-11-24T19:59:23.475Z,100764.59
2022-11-24T20:01:56.558Z,100773.06
2022-11-24T20:04:29.447Z,100775.72
2022-11-24T20:07:02.362Z,100768.59
2022-11-24T20:09:35.540Z,100775.81
2022-11-24T20:12:09.729Z,100785.50
2022-11-24T20:14:43.890Z,100777.84
2022-11-24T20:17:16.744Z,100782.41
2022-11-24T20:19:49.513Z,100783.69
2022-11-24T20:22:22.302Z,100777.84
2022-11-24T20:24:57.095Z,100783.91
2022-11-24T20:27:29.863Z,100780.41
2022-11-24T20:30:04.460Z,100781.88
2022-11-24T20:32:37.586Z,100782.94
2022-11-24T20:35:16.619Z,100782.22
2022-11-24T20:37:50.925Z,100775.59
2022-11-24T20:40:23.738Z,100756.47
2022-11-24T20:42:56.544Z,100770.81
2022-11-24T20:45:30.986Z,100773.69
2022-11-24T20:48:03.917Z,100767.53
2022-11-24T20:50:37.906Z,100774.72
2022-11-24T20:53:10.782Z,100764.09
2022-11-24T20:55:43.632Z,100769.84
2022-11-24T20:58:16.445Z,100760.72
2022-11-24T21:00:51.055Z,100767.81
2022-11-24T21:03:23.933Z,100770.88
2022-11-24T21:05:57.581Z,100770.44
2022-11-24T21:08:32.960Z,100778.72
2022-11-24T21:11:08.089Z,100779.28
2022-11-24T21:13:42.848Z,100783.72
2022-11-24T21:16:18.465Z,100780.63
2022-11-24T21:18:52.748Z,100778.38
2022-11-24T21:21:26.704Z,100771.31
2022-11-24T21:23:59.905Z,100772.75
2022-11-24T21:26:35.120Z,100778.84
2022-11-24T21:29:08.971Z,100782.06
2022-11-24T21:31:43.415Z,100757.88
2022-11-24T21:34:18.518Z,100782.47
2022-11-24T21:36:51.298Z,100776.78
2022-11-24T21:39:24.089Z,100780.56
2022-11-24T21:41:56.871Z,100781.88
2022-11-24T21:44:32.098Z,100776.69
2022-11-24T21:47:06.901Z,100770.94
2022-11-24T21:49:39.779Z,100775.47
2022-11-24T21:52:12.551Z,100772.44
2022-11-24T21:54:45.340Z,100775.84
2022-11-24T21:57:18.438Z,100764.88
2022-11-24T21:59:51.345Z,100780.03
2022-11-24T22:02:25.500Z,100769.81
2022-11-24T22:04:58.372Z,100754.81
2022-11-24T22:07:32.168Z,100761.31
2022-11-24T22:10:05.680Z,100765.31
2022-11-24T22:12:38.453Z,100759.16
2022-11-24T22:15:11.731Z,100751.47
2022-11-24T22:17:45.901Z,100754.88
2022-11-24T22:20:18.718Z,100739.56
2022-11-24T22:22:51.503Z,100750.94
2022-11-24T22:25:25.451Z,100751.78
2022-11-24T22:27:59.078Z,100738.19
2022-11-24T22:30:31.931Z,100727.88
2022-11-24T22:33:06.191Z,100749.50
2022-11-24T22:35:38.959Z,100746.22
2022-11-24T22:38:11.725Z,100747.13
2022-11-24T22:40:44.836Z,100751.22
2022-11-24T22:43:22.698Z,100736.47
2022-11-24T22:45:55.846Z,100748.38
2022-11-24T22:48:30.103Z,100743.38
2022-11-24T22:51:07.795Z,100736.97
2022-11-24T22:53:40.892Z,100747.16
2022-11-24T22:56:13.799Z,100738.28
2022-11-24T22:58:47.068Z,100722.75
2022-11-24T23:01:22.337Z,100744.50
2022-11-24T23:03:56.729Z,100737.31
2022-11-24T23:06:31.768Z,100730.13
2022-11-24T23:09:05.072Z,100733.53
2022-11-24T23:11:39.452Z,100738.44
2022-11-24T23:14:14.788Z,100719.56
2022-11-24T23:16:47.628Z,100725.41
2022-11-24T23:19:21.752Z,100734.75
2022-11-24T23:21:54.523Z,100723.91
2022-11-24T23:24:27.294Z,100722.00
2022-11-24T23:27:00.052Z,100723.03
2022-11-24T23:29:32.890Z,100722.44
2022-11-24T23:32:06.200Z,100719.13
2022-11-24T23:34:40.787Z,100720.81
2022-11-24T23:37:13.588Z,100716.31
2022-11-24T23:39:46.547Z,100717.59
2022-11-24T23:42:19.470Z,100711.38
2022-11-24T23:44:52.291Z,100699.81
2022-11-24T23:47:25.081Z,100695.56
2022-11-24T23:49:59.253Z,100704.44
2022-11-24T23:52:32.077Z,100684.59
2022-11-24T23:55:05.634Z,100696.13
2022-11-24T23:57:38.611Z,100693.16
